sensor_id;sensor_type;location;lat;lon;timestamp;pressure;altitude;pressure_sealevel;temperature;humidity
54308;BME280;40208;39.778;2.710;2023-02-26T00:02:13;100208.50;;;4.98;100.00
54308;BME280;40208;39.778;2.710;2023-02-26T00:04:57;100213.16;;;4.90;100.00
54308;BME280;40208;39.778;2.710;2023-02-26T00:07:41;100213.81;;;4.97;100.00
54308;BME280;40208;39.778;2.710;2023-02-26T00:10:26;100208.00;;;4.87;100.00
54308;BME280;40208;39.778;2.710;2023-02-26T00:13:10;100216.06;;;4.81;100.00
54308;BME280;40208;39.778;2.710;2023-02-26T00:15:55;100209.13;;;4.78;100.00
54308;BME280;40208;39.778;2.710;2023-02-26T00:18:41;100208.88;;;4.86;100.00
54308;BME280;40208;39.778;2.710;2023-02-26T00:21:26;100212.47;;;4.83;100.00
54308;BME280;40208;39.778;2.710;2023-02-26T00:24:11;100210.66;;;4.85;100.00
54308;BME280;40208;39.778;2.710;2023-02-26T00:26:55;100209.81;;;4.85;100.00
54308;BME280;40208;39.778;2.710;2023-02-26T00:29:40;100202.97;;;4.79;100.00
54308;BME280;40208;39.778;2.710;2023-02-26T00:32:25;100205.81;;;4.72;100.00
54308;BME280;40208;39.778;2.710;2023-02-26T00:35:11;100207.59;;;4.71;100.00
54308;BME280;40208;39.778;2.710;2023-02-26T00:38:06;100207.00;;;4.61;100.00
54308;BME280;40208;39.778;2.710;2023-02-26T00:40:52;100200.06;;;4.59;100.00
54308;BME280;40208;39.778;2.710;2023-02-26T00:43:39;100208.22;;;4.50;100.00
54308;BME280;40208;39.778;2.710;2023-02-26T00:52:38;100202.06;;;4.51;100.00
54308;BME280;40208;39.778;2.710;2023-02-26T00:55:25;100207.44;;;4.46;100.00
54308;BME280;40208;39.778;2.710;2023-02-26T00:58:10;100223.38;;;4.41;100.00
54308;BME280;40208;39.778;2.710;2023-02-26T01:00:55;100215.13;;;4.54;100.00
54308;BME280;40208;39.778;2.710;2023-02-26T01:03:39;100226.72;;;4.46;100.00
54308;BME280;40208;39.778;2.710;2023-02-26T01:06:25;100221.81;;;4.34;100.00
54308;BME280;40208;39.778;2.710;2023-02-26T01:12:21;100217.22;;;4.41;100.00
54308;BME280;40208;39.778;2.710;2023-02-26T01:15:06;100220.69;;;4.43;100.00
54308;BME280;40208;39.778;2.710;2023-02-26T01:17:52;100219.69;;;4.47;100.00
54308;BME280;40208;39.778;2.710;2023-02-26T01:20:43;100223.19;;;4.47;100.00
54308;BME280;40208;39.778;2.710;2023-02-26T01:23:34;100218.59;;;4.54;100.00
54308;BME280;40208;39.778;2.710;2023-02-26T01:26:22;100218.59;;;4.54;100.00
54308;BME280;40208;39.778;2.710;2023-02-26T01:29:09;100206.06;;;4.64;100.00
54308;BME280;40208;39.778;2.710;2023-02-26T01:35:01;100208.81;;;4.89;100.00
54308;BME280;40208;39.778;2.710;2023-02-26T01:43:50;100191.44;;;4.83;100.00
54308;BME280;40208;39.778;2.710;2023-02-26T01:49:33;100187.66;;;4.92;100.00
54308;BME280;40208;39.778;2.710;2023-02-26T01:55:21;100181.56;;;4.92;100.00
54308;BME280;40208;39.778;2.710;2023-02-26T01:58:07;100176.84;;;5.01;100.00
54308;BME280;40208;39.778;2.710;2023-02-26T02:00:51;100172.19;;;5.09;100.00
54308;BME280;40208;39.778;2.710;2023-02-26T02:03:37;100160.56;;;5.17;100.00
54308;BME280;40208;39.778;2.710;2023-02-26T02:06:23;100172.56;;;5.25;100.00
54308;BME280;40208;39.778;2.710;2023-02-26T02:09:08;100164.63;;;5.27;100.00
54308;BME280;40208;39.778;2.710;2023-02-26T02:17:49;100156.81;;;5.50;100.00
54308;BME280;40208;39.778;2.710;2023-02-26T02:29:25;100135.53;;;5.57;100.00
54308;BME280;40208;39.778;2.710;2023-02-26T02:32:16;100126.66;;;5.59;100.00
54308;BME280;40208;39.778;2.710;2023-02-26T02:35:11;100126.94;;;5.51;100.00
54308;BME280;40208;39.778;2.710;2023-02-26T02:37:58;100122.19;;;5.63;100.00
54308;BME280;40208;39.778;2.710;2023-02-26T02:40:45;100119.69;;;5.58;100.00
54308;BME280;40208;39.778;2.710;2023-02-26T02:43:31;100114.81;;;5.47;100.00
54308;BME280;40208;39.778;2.710;2023-02-26T02:46:18;100101.88;;;5.41;100.00
54308;BME280;40208;39.778;2.710;2023-02-26T02:49:06;100109.81;;;5.65;100.00
54308;BME280;40208;39.778;2.710;2023-02-26T02:51:54;100104.97;;;5.52;100.00
54308;BME280;40208;39.778;2.710;2023-02-26T02:54:41;100104.28;;;5.47;100.00
54308;BME280;40208;39.778;2.710;2023-02-26T02:57:38;100107.84;;;5.46;100.00
54308;BME280;40208;39.778;2.710;2023-02-26T03:00:25;100098.38;;;5.66;100.00
54308;BME280;40208;39.778;2.710;2023-02-26T03:06:04;100098.97;;;5.49;100.00
54308;BME280;40208;39.778;2.710;2023-02-26T03:08:49;100096.84;;;5.34;100.00
54308;BME280;40208;39.778;2.710;2023-02-26T03:11:35;100094.56;;;5.24;100.00
54308;BME280;40208;39.778;2.710;2023-02-26T03:14:20;100098.75;;;5.30;100.00
54308;BME280;40208;39.778;2.710;2023-02-26T03:17:11;100096.38;;;5.22;100.00
54308;BME280;40208;39.778;2.710;2023-02-26T03:22:57;100094.72;;;5.20;100.00
54308;BME280;40208;39.778;2.710;2023-02-26T03:25:45;100090.59;;;5.13;100.00
54308;BME280;40208;39.778;2.710;2023-02-26T03:28:35;100099.22;;;5.16;100.00
54308;BME280;40208;39.778;2.710;2023-02-26T03:31:25;100095.50;;;4.97;100.00
54308;BME280;40208;39.778;2.710;2023-02-26T03:34:12;100094.88;;;4.88;100.00
54308;BME280;40208;39.778;2.710;2023-02-26T03:40:15;100089.25;;;4.73;100.00
54308;BME280;40208;39.778;2.710;2023-02-26T03:46:14;100081.38;;;4.73;100.00
54308;BME280;40208;39.778;2.710;2023-02-26T03:49:02;100085.00;;;4.68;100.00
54308;BME280;40208;39.778;2.710;2023-02-26T03:51:50;100093.50;;;4.77;100.00
54308;BME280;40208;39.778;2.710;2023-02-26T03:54:38;100091.91;;;4.73;100.00
54308;BME280;40208;39.778;2.710;2023-02-26T03:57:24;100085.84;;;4.69;100.00
54308;BME280;40208;39.778;2.710;2023-02-26T04:00:09;100075.09;;;4.77;100.00
54308;BME280;40208;39.778;2.710;2023-02-26T04:02:57;100078.13;;;4.64;100.00
54308;BME280;40208;39.778;2.710;2023-02-26T04:05:47;100080.03;;;4.59;100.00
54308;BME280;40208;39.778;2.710;2023-02-26T04:08:32;100087.19;;;4.56;100.00
54308;BME280;40208;39.778;2.710;2023-02-26T04:11:17;100085.69;;;4.47;100.00
54308;BME280;40208;39.778;2.710;2023-02-26T04:14:03;100089.28;;;4.44;100.00
54308;BME280;40208;39.778;2.710;2023-02-26T04:16:47;100091.34;;;4.35;100.00
54308;BME280;40208;39.778;2.710;2023-02-26T04:19:32;100092.47;;;4.26;100.00
54308;BME280;40208;39.778;2.710;2023-02-26T04:22:16;100093.13;;;4.33;100.00
54308;BME280;40208;39.778;2.710;2023-02-26T04:25:01;100088.69;;;4.35;100.00
54308;BME280;40208;39.778;2.710;2023-02-26T04:27:46;100089.59;;;4.34;100.00
54308;BME280;40208;39.778;2.710;2023-02-26T04:30:31;100082.50;;;4.37;100.00
54308;BME280;40208;39.778;2.710;2023-02-26T04:33:16;100087.31;;;4.51;100.00
54308;BME280;40208;39.778;2.710;2023-02-26T04:36:00;100078.63;;;4.49;100.00
54308;BME280;40208;39.778;2.710;2023-02-26T04:38:45;100094.38;;;4.49;100.00
54308;BME280;40208;39.778;2.710;2023-02-26T04:41:30;100088.34;;;4.45;100.00
54308;BME280;40208;39.778;2.710;2023-02-26T04:44:15;100090.75;;;4.53;100.00
54308;BME280;40208;39.778;2.710;2023-02-26T04:47:00;100087.59;;;4.42;100.00
54308;BME280;40208;39.778;2.710;2023-02-26T04:49:45;100086.66;;;4.44;100.00
54308;BME280;40208;39.778;2.710;2023-02-26T04:52:29;100086.91;;;4.37;100.00
54308;BME280;40208;39.778;2.710;2023-02-26T04:55:14;100096.47;;;4.38;100.00
54308;BME280;40208;39.778;2.710;2023-02-26T04:57:59;100095.75;;;4.33;100.00
54308;BME280;40208;39.778;2.710;2023-02-26T05:00:48;100097.75;;;4.24;100.00
54308;BME280;40208;39.778;2.710;2023-02-26T05:03:33;100088.06;;;4.27;100.00
54308;BME280;40208;39.778;2.710;2023-02-26T05:06:18;100094.13;;;4.29;100.00
54308;BME280;40208;39.778;2.710;2023-02-26T05:09:03;100089.66;;;4.32;100.00
54308;BME280;40208;39.778;2.710;2023-02-26T05:11:48;100086.94;;;4.35;100.00
54308;BME280;40208;39.778;2.710;2023-02-26T05:14:32;100095.06;;;4.28;100.00
54308;BME280;40208;39.778;2.710;2023-02-26T05:17:17;100085.50;;;4.25;100.00
54308;BME280;40208;39.778;2.710;2023-02-26T05:20:02;100084.63;;;4.24;100.00
54308;BME280;40208;39.778;2.710;2023-02-26T05:22:47;100080.72;;;4.38;100.00
54308;BME280;40208;39.778;2.710;2023-02-26T05:25:32;100085.72;;;4.45;100.00
54308;BME280;40208;39.778;2.710;2023-02-26T05:28:17;100081.31;;;4.46;100.00
54308;BME280;40208;39.778;2.710;2023-02-26T05:31:01;100083.72;;;4.54;100.00
54308;BME280;40208;39.778;2.710;2023-02-26T05:33:46;100082.63;;;4.61;100.00
54308;BME280;40208;39.778;2.710;2023-02-26T05:36:30;100077.44;;;4.58;100.00
54308;BME280;40208;39.778;2.710;2023-02-26T05:39:15;100079.94;;;4.62;100.00
54308;BME280;40208;39.778;2.710;2023-02-26T05:42:00;100080.84;;;4.61;100.00
54308;BME280;40208;39.778;2.710;2023-02-26T05:44:45;100084.50;;;4.84;100.00
54308;BME280;40208;39.778;2.710;2023-02-26T05:47:31;100074.19;;;4.78;100.00
54308;BME280;40208;39.778;2.710;2023-02-26T05:50:15;100080.31;;;4.78;100.00
54308;BME280;40208;39.778;2.710;2023-02-26T05:53:00;100086.09;;;4.89;100.00
54308;BME280;40208;39.778;2.710;2023-02-26T05:55:45;100081.56;;;4.93;100.00
54308;BME280;40208;39.778;2.710;2023-02-26T05:58:29;100086.94;;;4.90;100.00
54308;BME280;40208;39.778;2.710;2023-02-26T06:01:16;100086.75;;;4.96;100.00
54308;BME280;40208;39.778;2.710;2023-02-26T06:04:02;100078.91;;;4.95;100.00
54308;BME280;40208;39.778;2.710;2023-02-26T06:06:46;100082.84;;;5.08;100.00
54308;BME280;40208;39.778;2.710;2023-02-26T06:09:31;100094.00;;;5.15;100.00
54308;BME280;40208;39.778;2.710;2023-02-26T06:12:15;100092.75;;;5.00;100.00
54308;BME280;40208;39.778;2.710;2023-02-26T06:15:00;100095.13;;;5.07;100.00
54308;BME280;40208;39.778;2.710;2023-02-26T06:17:44;100094.91;;;5.14;100.00
54308;BME280;40208;39.778;2.710;2023-02-26T06:20:29;100088.81;;;5.13;100.00
54308;BME280;40208;39.778;2.710;2023-02-26T06:23:14;100083.16;;;5.24;100.00
54308;BME280;40208;39.778;2.710;2023-02-26T06:25:59;100093.69;;;5.24;100.00
54308;BME280;40208;39.778;2.710;2023-02-26T06:28:43;100095.09;;;5.34;100.00
54308;BME280;40208;39.778;2.710;2023-02-26T06:31:28;100098.50;;;5.36;100.00
54308;BME280;40208;39.778;2.710;2023-02-26T06:34:13;100097.91;;;5.29;100.00
54308;BME280;40208;39.778;2.710;2023-02-26T06:36:57;100096.94;;;5.32;100.00
54308;BME280;40208;39.778;2.710;2023-02-26T06:39:42;100104.88;;;5.30;100.00
54308;BME280;40208;39.778;2.710;2023-02-26T06:42:27;100101.00;;;5.41;100.00
54308;BME280;40208;39.778;2.710;2023-02-26T06:45:11;100092.25;;;5.40;100.00
54308;BME280;40208;39.778;2.710;2023-02-26T06:47:56;100098.19;;;5.45;100.00
54308;BME280;40208;39.778;2.710;2023-02-26T06:50:41;100102.56;;;5.46;100.00
54308;BME280;40208;39.778;2.710;2023-02-26T06:53:26;100098.66;;;5.58;100.00
54308;BME280;40208;39.778;2.710;2023-02-26T06:56:11;100102.16;;;5.57;100.00
54308;BME280;40208;39.778;2.710;2023-02-26T06:58:55;100116.31;;;5.55;100.00
54308;BME280;40208;39.778;2.710;2023-02-26T07:01:40;100113.47;;;5.61;100.00
54308;BME280;40208;39.778;2.710;2023-02-26T07:04:25;100111.41;;;5.69;100.00
54308;BME280;40208;39.778;2.710;2023-02-26T07:07:10;100107.72;;;5.74;100.00
54308;BME280;40208;39.778;2.710;2023-02-26T07:09:55;100110.06;;;5.82;100.00
54308;BME280;40208;39.778;2.710;2023-02-26T07:12:40;100118.69;;;5.86;100.00
54308;BME280;40208;39.778;2.710;2023-02-26T07:15:25;100114.19;;;5.89;100.00
54308;BME280;40208;39.778;2.710;2023-02-26T07:18:10;100117.63;;;5.91;100.00
54308;BME280;40208;39.778;2.710;2023-02-26T07:20:55;100120.19;;;5.93;100.00
54308;BME280;40208;39.778;2.710;2023-02-26T07:23:40;100116.56;;;5.97;100.00
54308;BME280;40208;39.778;2.710;2023-02-26T07:26:25;100117.25;;;6.02;100.00
54308;BME280;40208;39.778;2.710;2023-02-26T07:29:09;100119.72;;;6.07;100.00
54308;BME280;40208;39.778;2.710;2023-02-26T07:31:54;100120.19;;;6.18;100.00
54308;BME280;40208;39.778;2.710;2023-02-26T07:34:38;100111.16;;;6.24;100.00
54308;BME280;40208;39.778;2.710;2023-02-26T07:37:23;100117.19;;;6.27;100.00
54308;BME280;40208;39.778;2.710;2023-02-26T07:40:08;100117.66;;;6.39;100.00
54308;BME280;40208;39.778;2.710;2023-02-26T07:42:53;100115.03;;;6.39;100.00
54308;BME280;40208;39.778;2.710;2023-02-26T07:45:37;100122.63;;;6.46;100.00
54308;BME280;40208;39.778;2.710;2023-02-26T07:48:22;100129.59;;;6.47;100.00
54308;BME280;40208;39.778;2.710;2023-02-26T07:51:07;100121.69;;;6.47;100.00
54308;BME280;40208;39.778;2.710;2023-02-26T07:53:54;100118.78;;;6.55;100.00
54308;BME280;40208;39.778;2.710;2023-02-26T07:56:39;100128.09;;;6.64;100.00
54308;BME280;40208;39.778;2.710;2023-02-26T07:59:24;100130.69;;;6.65;100.00
54308;BME280;40208;39.778;2.710;2023-02-26T08:02:10;100139.25;;;6.70;100.00
54308;BME280;40208;39.778;2.710;2023-02-26T08:04:55;100142.38;;;6.80;100.00
54308;BME280;40208;39.778;2.710;2023-02-26T08:07:40;100135.22;;;6.84;100.00
54308;BME280;40208;39.778;2.710;2023-02-26T08:10:25;100151.44;;;6.95;100.00
54308;BME280;40208;39.778;2.710;2023-02-26T08:13:10;100135.53;;;6.98;100.00
54308;BME280;40208;39.778;2.710;2023-02-26T08:15:55;100139.63;;;7.05;100.00
54308;BME280;40208;39.778;2.710;2023-02-26T08:18:40;100149.72;;;7.16;100.00
54308;BME280;40208;39.778;2.710;2023-02-26T08:21:24;100140.56;;;7.25;100.00
54308;BME280;40208;39.778;2.710;2023-02-26T08:24:10;100139.25;;;7.35;100.00
54308;BME280;40208;39.778;2.710;2023-02-26T08:26:56;100140.81;;;7.40;100.00
54308;BME280;40208;39.778;2.710;2023-02-26T08:29:41;100142.16;;;7.49;100.00
54308;BME280;40208;39.778;2.710;2023-02-26T08:32:26;100145.34;;;7.57;100.00
54308;BME280;40208;39.778;2.710;2023-02-26T08:35:11;100140.69;;;7.64;100.00
54308;BME280;40208;39.778;2.710;2023-02-26T08:37:56;100145.66;;;7.70;100.00
54308;BME280;40208;39.778;2.710;2023-02-26T08:40:41;100144.47;;;7.77;100.00
54308;BME280;40208;39.778;2.710;2023-02-26T08:43:26;100140.59;;;7.86;100.00
54308;BME280;40208;39.778;2.710;2023-02-26T08:46:11;100133.97;;;7.96;100.00
54308;BME280;40208;39.778;2.710;2023-02-26T08:48:55;100133.69;;;8.02;100.00
54308;BME280;40208;39.778;2.710;2023-02-26T08:51:40;100132.34;;;8.13;100.00
54308;BME280;40208;39.778;2.710;2023-02-26T08:54:25;100133.63;;;8.23;100.00
54308;BME280;40208;39.778;2.710;2023-02-26T08:57:10;100143.88;;;8.31;100.00
54308;BME280;40208;39.778;2.710;2023-02-26T08:59:55;100138.16;;;8.40;100.00
54308;BME280;40208;39.778;2.710;2023-02-26T09:02:40;100135.31;;;8.44;100.00
54308;BME280;40208;39.778;2.710;2023-02-26T09:05:25;100127.16;;;8.49;100.00
54308;BME280;40208;39.778;2.710;2023-02-26T09:08:10;100117.88;;;8.59;100.00
54308;BME280;40208;39.778;2.710;2023-02-26T09:10:58;100122.16;;;8.62;100.00
54308;BME280;40208;39.778;2.710;2023-02-26T09:13:42;100128.88;;;8.69;100.00
54308;BME280;40208;39.778;2.710;2023-02-26T09:16:27;100122.13;;;8.81;100.00
54308;BME280;40208;39.778;2.710;2023-02-26T09:19:13;100118.25;;;8.88;100.00
54308;BME280;40208;39.778;2.710;2023-02-26T09:21:57;100114.44;;;8.94;100.00
54308;BME280;40208;39.778;2.710;2023-02-26T09:24:42;100116.72;;;9.01;100.00
54308;BME280;40208;39.778;2.710;2023-02-26T09:27:27;100107.84;;;9.02;100.00
54308;BME280;40208;39.778;2.710;2023-02-26T09:30:12;100117.44;;;9.05;100.00
54308;BME280;40208;39.778;2.710;2023-02-26T09:32:57;100110.84;;;9.13;100.00
54308;BME280;40208;39.778;2.710;2023-02-26T09:35:42;100107.22;;;9.15;100.00
54308;BME280;40208;39.778;2.710;2023-02-26T09:38:26;100124.59;;;9.20;100.00
54308;BME280;40208;39.778;2.710;2023-02-26T09:41:21;100117.91;;;9.30;100.00
54308;BME280;40208;39.778;2.710;2023-02-26T09:44:23;100124.22;;;9.45;100.00
54308;BME280;40208;39.778;2.710;2023-02-26T09:55:40;100113.06;;;9.56;100.00
54308;BME280;40208;39.778;2.710;2023-02-26T09:58:29;100115.34;;;9.64;100.00
54308;BME280;40208;39.778;2.710;2023-02-26T10:01:32;100121.84;;;9.74;100.00
54308;BME280;40208;39.778;2.710;2023-02-26T10:04:40;100109.78;;;9.68;100.00
54308;BME280;40208;39.778;2.710;2023-02-26T10:13:19;100115.00;;;9.87;100.00
54308;BME280;40208;39.778;2.710;2023-02-26T10:16:09;100112.41;;;9.86;100.00
54308;BME280;40208;39.778;2.710;2023-02-26T10:18:57;100115.66;;;9.91;100.00
54308;BME280;40208;39.778;2.710;2023-02-26T10:21:49;100110.91;;;9.97;100.00
54308;BME280;40208;39.778;2.710;2023-02-26T10:24:43;100107.16;;;10.02;100.00
54308;BME280;40208;39.778;2.710;2023-02-26T10:27:38;100108.59;;;10.07;100.00
54308;BME280;40208;39.778;2.710;2023-02-26T10:42:21;100108.72;;;10.22;100.00
54308;BME280;40208;39.778;2.710;2023-02-26T10:48:05;100104.81;;;10.29;100.00
54308;BME280;40208;39.778;2.710;2023-02-26T10:50:53;100105.53;;;10.32;100.00
54308;BME280;40208;39.778;2.710;2023-02-26T10:53:41;100102.88;;;10.32;100.00
54308;BME280;40208;39.778;2.710;2023-02-26T10:56:28;100106.00;;;10.39;100.00
54308;BME280;40208;39.778;2.710;2023-02-26T10:59:14;100099.44;;;10.46;100.00
54308;BME280;40208;39.778;2.710;2023-02-26T11:01:59;100105.63;;;10.47;100.00
54308;BME280;40208;39.778;2.710;2023-02-26T11:04:43;100101.94;;;10.49;100.00
54308;BME280;40208;39.778;2.710;2023-02-26T11:07:29;100100.13;;;10.66;100.00
54308;BME280;40208;39.778;2.710;2023-02-26T11:10:16;100090.38;;;10.82;100.00
54308;BME280;40208;39.778;2.710;2023-02-26T11:13:01;100091.78;;;10.88;100.00
54308;BME280;40208;39.778;2.710;2023-02-26T11:15:48;100092.47;;;10.91;100.00
54308;BME280;40208;39.778;2.710;2023-02-26T11:18:42;100090.16;;;11.01;100.00
54308;BME280;40208;39.778;2.710;2023-02-26T11:21:35;100087.13;;;11.07;100.00
54308;BME280;40208;39.778;2.710;2023-02-26T11:24:28;100076.03;;;11.15;100.00
54308;BME280;40208;39.778;2.710;2023-02-26T11:27:19;100082.03;;;11.18;100.00
54308;BME280;40208;39.778;2.710;2023-02-26T11:30:14;100063.94;;;11.25;100.00
54308;BME280;40208;39.778;2.710;2023-02-26T11:33:19;100069.47;;;11.36;100.00
54308;BME280;40208;39.778;2.710;2023-02-26T11:36:15;100062.81;;;11.43;100.00
54308;BME280;40208;39.778;2.710;2023-02-26T11:39:03;100070.94;;;11.56;100.00
54308;BME280;40208;39.778;2.710;2023-02-26T11:41:49;100059.63;;;11.53;100.00
54308;BME280;40208;39.778;2.710;2023-02-26T11:44:42;100056.03;;;11.68;100.00
54308;BME280;40208;39.778;2.710;2023-02-26T11:47:29;100056.59;;;11.73;100.00
54308;BME280;40208;39.778;2.710;2023-02-26T11:50:16;100048.06;;;11.82;100.00
54308;BME280;40208;39.778;2.710;2023-02-26T11:53:06;100042.53;;;11.85;100.00
54308;BME280;40208;39.778;2.710;2023-02-26T11:55:57;100046.56;;;12.07;100.00
54308;BME280;40208;39.778;2.710;2023-02-26T11:58:44;100042.69;;;11.98;100.00
54308;BME280;40208;39.778;2.710;2023-02-26T12:01:29;100029.44;;;12.11;100.00
54308;BME280;40208;39.778;2.710;2023-02-26T12:04:18;100028.69;;;12.09;100.00
54308;BME280;40208;39.778;2.710;2023-02-26T12:07:03;100024.22;;;12.09;100.00
54308;BME280;40208;39.778;2.710;2023-02-26T12:09:48;100028.97;;;12.19;100.00
54308;BME280;40208;39.778;2.710;2023-02-26T12:21:25;100013.63;;;12.37;100.00
54308;BME280;40208;39.778;2.710;2023-02-26T12:24:21;100009.91;;;12.39;100.00
54308;BME280;40208;39.778;2.710;2023-02-26T13:01:55;99981.44;;;12.54;100.00
54308;BME280;40208;39.778;2.710;2023-02-26T13:16:31;99968.69;;;12.32;100.00
54308;BME280;40208;39.778;2.710;2023-02-26T13:19:22;99966.22;;;12.29;100.00
54308;BME280;40208;39.778;2.710;2023-02-26T13:28:13;99970.44;;;12.19;100.00
54308;BME280;40208;39.778;2.710;2023-02-26T13:31:02;99965.13;;;12.19;100.00
54308;BME280;40208;39.778;2.710;2023-02-26T13:33:49;99961.69;;;12.17;100.00
54308;BME280;40208;39.778;2.710;2023-02-26T13:36:34;99960.09;;;12.14;100.00
54308;BME280;40208;39.778;2.710;2023-02-26T13:51:01;99958.03;;;12.05;100.00
54308;BME280;40208;39.778;2.710;2023-02-26T13:53:59;99955.06;;;12.09;100.00
54308;BME280;40208;39.778;2.710;2023-02-26T13:56:48;99950.03;;;12.05;100.00
54308;BME280;40208;39.778;2.710;2023-02-26T13:59:45;99952.41;;;12.09;100.00
54308;BME280;40208;39.778;2.710;2023-02-26T14:02:35;99951.00;;;12.04;100.00
54308;BME280;40208;39.778;2.710;2023-02-26T14:14:16;99961.94;;;11.99;100.00
54308;BME280;40208;39.778;2.710;2023-02-26T14:20:07;99972.03;;;11.94;100.00
54308;BME280;40208;39.778;2.710;2023-02-26T14:25:46;99977.13;;;11.97;100.00
54308;BME280;40208;39.778;2.710;2023-02-26T14:28:33;99975.06;;;11.88;100.00
54308;BME280;40208;39.778;2.710;2023-02-26T14:31:21;99989.19;;;11.88;100.00
54308;BME280;40208;39.778;2.710;2023-02-26T14:34:13;99979.88;;;11.81;100.00
54308;BME280;40208;39.778;2.710;2023-02-26T14:37:00;99979.88;;;11.81;100.00
54308;BME280;40208;39.778;2.710;2023-02-26T14:39:47;99976.38;;;11.81;100.00
54308;BME280;40208;39.778;2.710;2023-02-26T14:42:33;99980.84;;;11.80;100.00
54308;BME280;40208;39.778;2.710;2023-02-26T14:45:27;99995.09;;;11.79;100.00
54308;BME280;40208;39.778;2.710;2023-02-26T14:48:14;99983.03;;;11.74;100.00
54308;BME280;40208;39.778;2.710;2023-02-26T15:05:50;99997.06;;;11.76;100.00
54308;BME280;40208;39.778;2.710;2023-02-26T15:11:43;100000.41;;;11.79;100.00
54308;BME280;40208;39.778;2.710;2023-02-26T15:17:45;100003.63;;;11.84;100.00
54308;BME280;40208;39.778;2.710;2023-02-26T15:26:23;100003.63;;;11.84;100.00
54308;BME280;40208;39.778;2.710;2023-02-26T15:29:09;100012.19;;;11.90;100.00
54308;BME280;40208;39.778;2.710;2023-02-26T15:31:59;100009.63;;;11.88;100.00
54308;BME280;40208;39.778;2.710;2023-02-26T15:34:47;100018.69;;;11.84;100.00
54308;BME280;40208;39.778;2.710;2023-02-26T15:37:34;100015.13;;;11.85;100.00
54308;BME280;40208;39.778;2.710;2023-02-26T15:40:20;100012.19;;;11.90;100.00
54308;BME280;40208;39.778;2.710;2023-02-26T15:43:05;100013.31;;;11.85;100.00
54308;BME280;40208;39.778;2.710;2023-02-26T15:45:54;100012.47;;;11.71;100.00
54308;BME280;40208;39.778;2.710;2023-02-26T15:48:39;100013.09;;;11.74;100.00
54308;BME280;40208;39.778;2.710;2023-02-26T15:51:27;100018.44;;;11.74;100.00
54308;BME280;40208;39.778;2.710;2023-02-26T15:54:14;100017.78;;;11.71;100.00
54308;BME280;40208;39.778;2.710;2023-02-26T15:57:00;100016.94;;;11.84;100.00
54308;BME280;40208;39.778;2.710;2023-02-26T15:59:46;100018.91;;;11.81;100.00
54308;BME280;40208;39.778;2.710;2023-02-26T16:02:31;100026.03;;;11.80;100.00
54308;BME280;40208;39.778;2.710;2023-02-26T16:05:17;100029.81;;;11.76;100.00
54308;BME280;40208;39.778;2.710;2023-02-26T16:08:01;100031.56;;;11.77;100.00
54308;BME280;40208;39.778;2.710;2023-02-26T16:10:47;100026.53;;;11.73;100.00
54308;BME280;40208;39.778;2.710;2023-02-26T16:13:32;100027.72;;;11.67;100.00
54308;BME280;40208;39.778;2.710;2023-02-26T16:16:23;100037.22;;;11.71;100.00
54308;BME280;40208;39.778;2.710;2023-02-26T16:19:19;100044.28;;;11.72;100.00
54308;BME280;40208;39.778;2.710;2023-02-26T16:22:06;100049.97;;;11.66;100.00
54308;BME280;40208;39.778;2.710;2023-02-26T16:24:56;100051.00;;;11.63;100.00
54308;BME280;40208;39.778;2.710;2023-02-26T16:27:42;100042.34;;;11.60;100.00
54308;BME280;40208;39.778;2.710;2023-02-26T16:30:31;100041.13;;;11.65;100.00
54308;BME280;40208;39.778;2.710;2023-02-26T16:33:17;100050.31;;;11.60;100.00
54308;BME280;40208;39.778;2.710;2023-02-26T16:36:10;100047.66;;;11.60;100.00
54308;BME280;40208;39.778;2.710;2023-02-26T16:39:16;100047.50;;;11.63;100.00
54308;BME280;40208;39.778;2.710;2023-02-26T16:44:50;100047.94;;;11.55;100.00
54308;BME280;40208;39.778;2.710;2023-02-26T16:47:41;100048.81;;;11.56;100.00
54308;BME280;40208;39.778;2.710;2023-02-26T16:50:26;100055.84;;;11.57;100.00
54308;BME280;40208;39.778;2.710;2023-02-26T16:53:12;100042.81;;;11.52;100.00
54308;BME280;40208;39.778;2.710;2023-02-26T16:55:58;100052.59;;;11.52;100.00
54308;BME280;40208;39.778;2.710;2023-02-26T16:58:44;100059.63;;;11.53;100.00
54308;BME280;40208;39.778;2.710;2023-02-26T17:01:33;100059.72;;;11.51;100.00
54308;BME280;40208;39.778;2.710;2023-02-26T17:04:20;100054.69;;;11.46;100.00
54308;BME280;40208;39.778;2.710;2023-02-26T17:07:18;100057.50;;;11.43;100.00
54308;BME280;40208;39.778;2.710;2023-02-26T17:10:08;100068.25;;;11.42;100.00
54308;BME280;40208;39.778;2.710;2023-02-26T17:13:00;100070.06;;;11.41;100.00
54308;BME280;40208;39.778;2.710;2023-02-26T17:15:46;100072.22;;;11.35;100.00
54308;BME280;40208;39.778;2.710;2023-02-26T17:18:31;100069.06;;;11.28;100.00
54308;BME280;40208;39.778;2.710;2023-02-26T17:21:16;100076.00;;;11.31;100.00
54308;BME280;40208;39.778;2.710;2023-02-26T17:24:01;100072.69;;;11.27;100.00
54308;BME280;40208;39.778;2.710;2023-02-26T17:26:46;100080.53;;;11.29;100.00
54308;BME280;40208;39.778;2.710;2023-02-26T17:32:22;100087.25;;;11.20;100.00
54308;BME280;40208;39.778;2.710;2023-02-26T17:35:08;100090.28;;;11.14;100.00
54308;BME280;40208;39.778;2.710;2023-02-26T17:37:55;100105.78;;;11.06;100.00
54308;BME280;40208;39.778;2.710;2023-02-26T17:40:44;100109.59;;;11.01;100.00
54308;BME280;40208;39.778;2.710;2023-02-26T17:43:30;100106.63;;;10.92;100.00
54308;BME280;40208;39.778;2.710;2023-02-26T17:46:16;100114.06;;;10.85;100.00
54308;BME280;40208;39.778;2.710;2023-02-26T17:49:00;100111.41;;;10.85;100.00
54308;BME280;40208;39.778;2.710;2023-02-26T17:51:45;100108.38;;;10.91;100.00